createdAt,value
2023-03-18T00:01:16.258Z,9.07
2023-03-18T00:03:45.990Z,9.71
2023-03-18T00:06:16.039Z,9.70
2023-03-18T00:08:45.506Z,9.65
2023-03-18T00:11:15.838Z,9.52
2023-03-18T00:13:44.305Z,9.52
2023-03-18T00:16:15.214Z,9.54
2023-03-18T00:18:44.040Z,9.52
2023-03-18T00:21:12.424Z,9.44
2023-03-18T00:23:40.834Z,9.44
2023-03-18T00:26:09.250Z,9.33
2023-03-18T00:28:38.331Z,9.30
2023-03-18T00:31:09.512Z,9.24
2023-03-18T00:33:41.254Z,9.35
2023-03-18T00:36:10.788Z,8.86
2023-03-18T00:38:39.207Z,9.25
2023-03-18T00:41:12.309Z,8.95
2023-03-18T00:43:49.483Z,9.33
2023-03-18T00:46:20.599Z,9.46
2023-03-18T00:48:50.564Z,9.42
2023-03-18T00:51:19.790Z,8.99
2023-03-18T00:53:52.026Z,9.11
2023-03-18T00:56:22.295Z,8.88
2023-03-18T00:58:52.441Z,9.28
2023-03-18T01:01:21.667Z,9.06
2023-03-18T01:03:51.825Z,9.24
2023-03-18T01:06:23.053Z,9.32
2023-03-18T01:08:51.945Z,9.31
2023-03-18T01:11:20.553Z,9.23
2023-03-18T01:13:49.156Z,8.61
2023-03-18T01:16:17.996Z,8.65
2023-03-18T01:18:46.829Z,8.79
2023-03-18T01:21:17.292Z,8.96
2023-03-18T01:23:45.653Z,9.08
2023-03-18T01:26:14.061Z,9.12
2023-03-18T01:28:42.550Z,9.07
2023-03-18T01:31:12.810Z,8.99
2023-03-18T01:33:41.635Z,9.06
2023-03-18T01:36:10.784Z,8.93
2023-03-18T01:38:42.518Z,8.91
2023-03-18T01:41:11.920Z,8.90
2023-03-18T01:43:42.970Z,8.83
2023-03-18T01:46:34.339Z,8.75
2023-03-18T01:49:04.148Z,8.74
2023-03-18T01:51:32.662Z,8.60
2023-03-18T01:54:04.787Z,8.36
2023-03-18T01:56:36.806Z,8.51
2023-03-18T01:59:08.072Z,8.40
2023-03-18T02:01:41.993Z,8.23
2023-03-18T02:04:11.675Z,8.04
2023-03-18T02:06:40.339Z,7.88
2023-03-18T02:09:10.813Z,8.17
2023-03-18T02:11:42.579Z,7.89
2023-03-18T02:14:14.471Z,7.88
2023-03-18T02:16:46.230Z,7.13
2023-03-18T02:19:27.659Z,6.54
2023-03-18T02:22:04.786Z,6.97
2023-03-18T02:24:42.824Z,6.56
2023-03-18T02:27:21.001Z,6.72
2023-03-18T02:29:50.417Z,6.75
2023-03-18T02:32:20.309Z,6.94
2023-03-18T02:34:49.512Z,7.33
2023-03-18T02:37:17.712Z,7.50
2023-03-18T02:39:46.032Z,7.21
2023-03-18T02:42:14.827Z,7.23
2023-03-18T02:44:47.212Z,6.89
2023-03-18T02:47:20.086Z,7.19
2023-03-18T02:49:48.367Z,6.22
2023-03-18T02:52:16.874Z,6.32
2023-03-18T02:54:45.165Z,6.06
2023-03-18T02:57:13.384Z,6.15
2023-03-18T02:59:41.674Z,6.52
2023-03-18T03:02:11.888Z,6.84
2023-03-18T03:04:40.248Z,6.36
2023-03-18T03:07:08.732Z,6.22
2023-03-18T03:09:37.060Z,6.56
2023-03-18T03:12:05.769Z,6.48
2023-03-18T03:14:34.038Z,6.57
2023-03-18T03:17:02.816Z,6.75
2023-03-18T03:19:33.340Z,6.47
2023-03-18T03:22:01.971Z,6.10
2023-03-18T03:24:30.456Z,6.15
2023-03-18T03:26:58.741Z,6.33
2023-03-18T03:29:27.020Z,6.47
2023-03-18T03:31:55.899Z,6.32
2023-03-18T03:34:25.066Z,6.30
2023-03-18T03:36:54.936Z,6.43
2023-03-18T03:39:23.267Z,6.51
2023-03-18T03:41:51.762Z,6.60
2023-03-18T03:44:20.442Z,6.85
2023-03-18T03:46:49.499Z,6.92
2023-03-18T03:49:18.722Z,6.98
2023-03-18T03:51:46.945Z,7.10
2023-03-18T03:54:16.924Z,7.10
2023-03-18T03:56:45.162Z,7.33
2023-03-18T03:59:13.408Z,7.42
2023-03-18T04:01:41.767Z,7.34
2023-03-18T04:04:10.217Z,7.45
2023-03-18T04:06:38.582Z,7.53
2023-03-18T04:09:06.920Z,7.33
2023-03-18T04:11:36.609Z,6.71
2023-03-18T04:14:04.880Z,6.99
2023-03-18T04:16:34.211Z,7.29
2023-03-18T04:19:02.509Z,6.66
2023-03-18T04:21:30.812Z,7.11
2023-03-18T04:23:59.120Z,7.44
2023-03-18T04:26:28.644Z,7.04
2023-03-18T04:28:58.476Z,7.68
2023-03-18T04:31:27.284Z,7.72
2023-03-18T04:33:55.641Z,7.75
2023-03-18T04:36:23.936Z,7.55
2023-03-18T04:38:52.735Z,7.52
2023-03-18T04:41:21.132Z,7.14
2023-03-18T04:43:49.715Z,7.18
2023-03-18T04:46:19.855Z,7.00
2023-03-18T04:48:48.307Z,6.83
2023-03-18T04:51:16.553Z,6.64
2023-03-18T04:53:44.871Z,6.68
2023-03-18T04:56:13.069Z,6.98
2023-03-18T04:58:41.462Z,7.23
2023-03-18T05:01:10.266Z,7.09
2023-03-18T05:03:40.055Z,7.28
2023-03-18T05:06:09.472Z,7.18
2023-03-18T05:08:37.816Z,7.28
2023-03-18T05:11:06.403Z,7.40
2023-03-18T05:13:34.603Z,7.71
2023-03-18T05:16:03.000Z,7.67
2023-03-18T05:18:31.313Z,7.74
2023-03-18T05:21:01.198Z,7.78
2023-03-18T05:23:29.981Z,7.89
2023-03-18T05:25:58.664Z,7.76
2023-03-18T05:28:27.375Z,7.66
2023-03-18T05:30:55.676Z,7.45
2023-03-18T05:33:24.015Z,7.53
2023-03-18T05:36:01.105Z,7.64
2023-03-18T05:38:30.904Z,7.45
2023-03-18T05:40:59.232Z,7.61
2023-03-18T05:43:28.520Z,7.25
2023-03-18T05:45:56.797Z,8.03
2023-03-18T05:48:25.782Z,7.84
2023-03-18T05:50:54.196Z,7.79
2023-03-18T05:53:22.577Z,7.92
2023-03-18T05:55:52.190Z,8.15
2023-03-18T05:58:21.236Z,8.04
2023-03-18T06:00:53.586Z,8.12
2023-03-18T06:03:22.003Z,8.01
2023-03-18T06:05:50.365Z,7.76
2023-03-18T06:08:18.919Z,8.18
2023-03-18T06:10:47.311Z,8.30
2023-03-18T06:13:17.682Z,7.55
2023-03-18T06:15:47.782Z,7.80
2023-03-18T06:18:17.377Z,7.88
2023-03-18T06:20:45.998Z,8.35
2023-03-18T06:23:15.292Z,8.59
2023-03-18T06:25:43.577Z,8.40
2023-03-18T06:28:11.908Z,8.75
2023-03-18T06:30:46.198Z,8.92
2023-03-18T06:33:19.907Z,8.75
2023-03-18T06:35:49.604Z,8.79
2023-03-18T06:38:18.334Z,8.94
2023-03-18T06:40:47.490Z,8.71
2023-03-18T06:43:15.770Z,8.98
2023-03-18T06:45:45.442Z,8.68
2023-03-18T06:48:13.897Z,8.94
2023-03-18T06:50:49.449Z,8.81
2023-03-18T06:53:17.932Z,8.80
2023-03-18T06:55:46.214Z,9.04
2023-03-18T06:58:14.550Z,8.69
2023-03-18T07:00:45.528Z,8.17
2023-03-18T07:03:15.822Z,8.40
2023-03-18T07:05:44.100Z,8.28
2023-03-18T07:08:12.494Z,8.83
2023-03-18T07:10:40.997Z,8.84
2023-03-18T07:13:10.615Z,8.80
2023-03-18T07:15:39.419Z,8.62
2023-03-18T07:18:12.008Z,8.80
2023-03-18T07:20:40.565Z,9.03
2023-03-18T07:23:09.991Z,9.27
2023-03-18T07:25:38.645Z,8.88
2023-03-18T07:28:06.918Z,8.52
2023-03-18T07:30:35.405Z,9.26
2023-03-18T07:33:05.761Z,9.25
2023-03-18T07:35:36.033Z,9.37
2023-03-18T07:38:04.608Z,8.61
2023-03-18T07:40:32.958Z,8.71
2023-03-18T07:43:01.219Z,9.11
2023-03-18T07:45:30.304Z,7.99
2023-03-18T07:47:59.005Z,7.72
2023-03-18T07:50:27.899Z,8.76
2023-03-18T07:52:57.601Z,9.19
2023-03-18T07:55:25.984Z,9.64
2023-03-18T07:57:54.268Z,9.00
2023-03-18T08:00:23.587Z,8.86
2023-03-18T08:02:51.870Z,8.93
2023-03-18T08:05:22.216Z,9.39
2023-03-18T08:07:50.487Z,9.84
2023-03-18T08:10:20.898Z,9.56
2023-03-18T08:12:53.546Z,10.01
2023-03-18T08:15:22.642Z,9.96
2023-03-18T08:17:51.250Z,9.71
2023-03-18T08:20:19.741Z,9.66
2023-03-18T08:22:48.614Z,9.54
2023-03-18T08:25:17.576Z,9.79
2023-03-18T08:27:47.339Z,10.08
2023-03-18T08:30:16.627Z,10.62
2023-03-18T08:32:45.439Z,10.63
2023-03-18T08:35:14.510Z,10.85
2023-03-18T08:37:42.963Z,10.25
2023-03-18T08:40:12.583Z,10.33
2023-03-18T08:42:40.933Z,10.47
2023-03-18T08:45:12.477Z,10.68
2023-03-18T08:47:41.582Z,10.55
2023-03-18T08:50:11.285Z,10.36
2023-03-18T08:52:39.960Z,10.53
2023-03-18T08:55:09.819Z,10.64
2023-03-18T08:57:39.082Z,10.88
2023-03-18T09:00:09.136Z,10.25
2023-03-18T09:02:38.785Z,10.05
2023-03-18T09:05:07.995Z,9.71
2023-03-18T09:07:36.344Z,10.38
2023-03-18T09:10:05.070Z,10.08
2023-03-18T09:12:33.460Z,10.17
2023-03-18T09:15:02.204Z,9.76
2023-03-18T09:17:45.336Z,9.93
2023-03-18T09:20:19.300Z,10.26
2023-03-18T09:22:48.295Z,10.07
2023-03-18T09:25:16.890Z,10.14
2023-03-18T09:27:45.914Z,10.62
2023-03-18T09:30:15.614Z,10.99
2023-03-18T09:32:44.820Z,11.29
2023-03-18T09:35:14.455Z,11.49
2023-03-18T09:37:44.792Z,11.44
2023-03-18T09:40:20.034Z,11.48
2023-03-18T09:43:06.919Z,11.33
2023-03-18T09:45:40.118Z,11.01
2023-03-18T09:48:43.590Z,10.72
2023-03-18T09:51:25.987Z,10.61
2023-03-18T09:53:59.772Z,10.49
2023-03-18T09:56:30.948Z,11.08
2023-03-18T09:59:04.105Z,11.31
2023-03-18T10:01:35.850Z,11.76
2023-03-18T10:04:11.198Z,11.30
2023-03-18T10:06:43.245Z,11.68
2023-03-18T10:09:20.436Z,11.82
2023-03-18T10:11:50.353Z,12.14
2023-03-18T10:14:33.155Z,12.03
2023-03-18T10:17:11.362Z,12.15
2023-03-18T10:19:45.682Z,12.09
2023-03-18T10:23:05.137Z,11.83
2023-03-18T10:25:39.088Z,11.69
2023-03-18T10:28:30.152Z,11.62
2023-03-18T10:31:08.493Z,11.61
2023-03-18T10:33:47.631Z,11.91
2023-03-18T10:36:22.472Z,12.08
2023-03-18T10:38:52.204Z,11.81
2023-03-18T10:41:28.792Z,11.97
2023-03-18T10:43:58.692Z,12.06
2023-03-18T10:46:28.386Z,11.84
2023-03-18T10:49:01.964Z,11.80
2023-03-18T10:51:35.767Z,11.81
2023-03-18T10:54:11.587Z,11.86
2023-03-18T10:56:41.502Z,11.76
2023-03-18T10:59:18.852Z,12.01
2023-03-18T11:01:50.051Z,11.96
2023-03-18T11:04:21.745Z,11.97
2023-03-18T11:06:54.468Z,11.24
2023-03-18T11:09:25.639Z,11.12
2023-03-18T11:12:05.609Z,10.66
2023-03-18T11:14:34.994Z,10.43
2023-03-18T11:17:05.348Z,10.51
2023-03-18T11:19:39.365Z,10.43
2023-03-18T11:22:19.887Z,10.46
2023-03-18T11:25:02.113Z,10.31
2023-03-18T11:27:37.445Z,10.84
2023-03-18T11:30:24.223Z,10.76
2023-03-18T11:32:58.593Z,10.52
2023-03-18T11:35:34.724Z,10.21
2023-03-18T11:38:05.662Z,10.46
2023-03-18T11:40:34.489Z,10.71
2023-03-18T11:43:15.719Z,10.97
2023-03-18T11:45:48.911Z,10.76
2023-03-18T11:48:23.399Z,10.51
2023-03-18T11:51:07.263Z,10.19
2023-03-18T11:53:46.670Z,10.21
2023-03-18T11:56:22.503Z,10.78
2023-03-18T11:59:09.451Z,10.70
2023-03-18T12:01:47.537Z,11.13
2023-03-18T12:04:49.748Z,10.80
2023-03-18T12:07:49.670Z,10.88
2023-03-18T12:10:24.410Z,11.22
2023-03-18T12:13:07.069Z,12.22
2023-03-18T12:15:48.745Z,12.40
2023-03-18T12:18:33.570Z,12.64
2023-03-18T12:21:13.813Z,12.43
2023-03-18T12:23:55.439Z,12.99
2023-03-18T12:26:35.353Z,12.92
2023-03-18T12:29:23.360Z,13.29
2023-03-18T12:32:04.119Z,13.56
2023-03-18T12:34:49.510Z,13.26
2023-03-18T12:37:32.331Z,13.14
2023-03-18T12:40:18.168Z,13.48
2023-03-18T12:43:11.174Z,12.26
2023-03-18T12:45:43.646Z,13.61
2023-03-18T12:48:17.738Z,12.98
2023-03-18T12:50:51.916Z,13.18
2023-03-18T12:53:28.880Z,13.21
2023-03-18T12:56:03.953Z,13.14
2023-03-18T12:58:39.270Z,13.74
2023-03-18T13:01:18.265Z,13.31
2023-03-18T13:03:51.540Z,12.99
2023-03-18T13:06:24.743Z,12.86
2023-03-18T13:09:01.397Z,12.99
2023-03-18T13:11:58.995Z,12.91
2023-03-18T13:14:34.867Z,13.12
2023-03-18T13:17:04.755Z,13.17
2023-03-18T13:19:43.763Z,12.89
2023-03-18T13:22:30.506Z,13.39
2023-03-18T13:25:18.068Z,13.15
2023-03-18T13:27:56.118Z,12.79
2023-03-18T13:30:34.633Z,13.33
2023-03-18T13:33:56.778Z,14.07
2023-03-18T13:37:03.362Z,14.80
2023-03-18T13:39:47.778Z,15.76
2023-03-18T13:42:23.349Z,15.12
2023-03-18T13:44:59.863Z,13.36
2023-03-18T13:47:32.338Z,12.82
2023-03-18T13:50:03.842Z,12.47
2023-03-18T13:52:37.567Z,11.73
2023-03-18T13:55:26.452Z,11.76
2023-03-18T13:58:10.694Z,12.66
2023-03-18T14:00:42.130Z,13.89
2023-03-18T14:03:23.347Z,14.17
2023-03-18T14:05:54.303Z,13.11
2023-03-18T14:08:48.384Z,12.61
2023-03-18T14:11:53.569Z,13.05
2023-03-18T14:14:55.093Z,12.89
2023-03-18T14:17:28.344Z,13.29
2023-03-18T14:19:57.551Z,13.27
2023-03-18T14:22:35.755Z,13.12
2023-03-18T14:25:21.685Z,14.42
2023-03-18T14:27:54.796Z,14.20
2023-03-18T14:30:47.870Z,14.15
2023-03-18T14:33:41.209Z,13.93
2023-03-18T14:36:11.620Z,13.25
2023-03-18T14:38:46.705Z,13.45
2023-03-18T14:41:20.876Z,12.52
2023-03-18T14:43:59.868Z,11.85
2023-03-18T14:46:34.403Z,12.23
2023-03-18T14:49:02.726Z,12.39
2023-03-18T14:51:32.921Z,12.74
2023-03-18T14:54:06.058Z,12.92
2023-03-18T14:56:40.765Z,13.39
2023-03-18T14:59:17.587Z,13.54
2023-03-18T15:01:50.786Z,13.11
2023-03-18T15:04:22.664Z,13.44
2023-03-18T15:06:53.240Z,13.71
2023-03-18T15:09:25.778Z,14.38
2023-03-18T15:11:54.580Z,14.06
2023-03-18T15:14:27.453Z,13.19
2023-03-18T15:16:57.407Z,13.24
2023-03-18T15:19:26.943Z,13.64
2023-03-18T15:21:56.137Z,14.11
2023-03-18T15:24:27.217Z,14.05
2023-03-18T15:27:02.063Z,14.25
2023-03-18T15:29:36.713Z,13.56
2023-03-18T15:32:10.857Z,13.71
2023-03-18T15:34:43.306Z,12.89
2023-03-18T15:37:33.777Z,12.99
2023-03-18T15:40:31.490Z,12.62
2023-03-18T15:43:07.324Z,12.05
2023-03-18T15:45:41.131Z,12.33
2023-03-18T15:48:21.794Z,12.22
2023-03-18T15:50:54.489Z,12.14
2023-03-18T15:53:25.218Z,11.79
2023-03-18T15:55:56.605Z,11.89
2023-03-18T15:58:28.556Z,11.73
2023-03-18T16:00:58.664Z,11.90
2023-03-18T16:03:29.321Z,11.71
2023-03-18T16:05:58.342Z,11.04
2023-03-18T16:08:27.086Z,11.00
2023-03-18T16:10:59.370Z,11.27
2023-03-18T16:13:30.739Z,10.30
2023-03-18T16:16:00.693Z,10.78
2023-03-18T16:18:29.175Z,10.50
2023-03-18T16:20:57.575Z,10.50
2023-03-18T16:23:25.888Z,10.89
2023-03-18T16:25:56.337Z,10.81
2023-03-18T16:28:26.438Z,10.34
2023-03-18T16:30:56.280Z,10.14
2023-03-18T16:33:26.385Z,10.72
2023-03-18T16:35:58.798Z,10.00
2023-03-18T16:38:28.615Z,9.65
2023-03-18T16:40:57.728Z,9.80
2023-03-18T16:43:28.641Z,10.03
2023-03-18T16:46:01.070Z,9.64
2023-03-18T16:48:30.942Z,9.24
2023-03-18T16:51:02.424Z,9.26
2023-03-18T16:53:32.235Z,9.83
2023-03-18T16:56:03.327Z,10.00
2023-03-18T16:58:35.554Z,10.08
2023-03-18T17:01:06.352Z,9.96
2023-03-18T17:03:37.570Z,9.89
2023-03-18T17:06:06.977Z,10.10
2023-03-18T17:08:36.870Z,10.05
2023-03-18T17:11:05.868Z,9.65
2023-03-18T17:13:38.043Z,9.36
2023-03-18T17:16:07.040Z,9.51
2023-03-18T17:18:36.770Z,9.14
2023-03-18T17:21:05.609Z,8.12
2023-03-18T17:23:34.510Z,7.78
2023-03-18T17:26:04.843Z,7.63
2023-03-18T17:28:37.011Z,7.71
2023-03-18T17:31:06.341Z,7.83
2023-03-18T17:33:37.823Z,7.67
2023-03-18T17:36:08.170Z,7.12
2023-03-18T17:38:37.420Z,7.43
2023-03-18T17:41:14.688Z,8.22
2023-03-18T17:43:43.361Z,7.87
2023-03-18T17:46:11.792Z,7.47
2023-03-18T17:48:42.876Z,7.74
2023-03-18T17:51:15.545Z,7.88
2023-03-18T17:53:46.240Z,7.62
2023-03-18T17:56:16.401Z,7.46
2023-03-18T17:58:46.970Z,7.49
2023-03-18T18:01:17.866Z,7.73
2023-03-18T18:03:48.070Z,7.30
2023-03-18T18:06:18.877Z,7.96
2023-03-18T18:08:47.619Z,8.10
2023-03-18T18:11:20.543Z,7.37
2023-03-18T18:13:49.291Z,7.42
2023-03-18T18:16:18.910Z,7.30
2023-03-18T18:18:49.940Z,7.23
2023-03-18T18:21:21.794Z,7.75
2023-03-18T18:23:50.570Z,7.82
2023-03-18T18:26:21.584Z,7.18
2023-03-18T18:28:51.814Z,8.04
2023-03-18T18:31:21.666Z,8.05
2023-03-18T18:33:52.625Z,7.46
2023-03-18T18:36:21.494Z,7.24
2023-03-18T18:38:50.438Z,7.18
2023-03-18T18:41:18.742Z,6.98
2023-03-18T18:43:47.103Z,5.62
2023-03-18T18:46:16.412Z,6.34
2023-03-18T18:48:48.673Z,6.57
2023-03-18T18:51:20.255Z,6.69
2023-03-18T18:53:50.911Z,6.73
2023-03-18T18:56:23.217Z,6.83
2023-03-18T18:58:52.361Z,7.40
2023-03-18T19:01:21.401Z,7.58
2023-03-18T19:03:49.964Z,7.66
2023-03-18T19:06:27.721Z,7.71
2023-03-18T19:08:57.801Z,7.54
2023-03-18T19:11:27.050Z,7.34
2023-03-18T19:13:56.375Z,6.98
2023-03-18T19:16:30.389Z,7.30
2023-03-18T19:18:59.256Z,7.40
2023-03-18T19:21:29.080Z,7.37
2023-03-18T19:23:58.351Z,7.44
2023-03-18T19:26:27.309Z,7.40
2023-03-18T19:28:59.666Z,6.97
2023-03-18T19:31:32.434Z,7.30
2023-03-18T19:34:02.281Z,7.27
2023-03-18T19:36:38.987Z,7.28
2023-03-18T19:39:08.322Z,7.20
2023-03-18T19:41:36.975Z,7.13
2023-03-18T19:44:16.219Z,7.15
2023-03-18T19:46:45.468Z,6.55
2023-03-18T19:49:19.005Z,6.73
2023-03-18T19:51:49.892Z,7.00
2023-03-18T19:54:28.973Z,6.96
2023-03-18T19:57:00.745Z,6.66
2023-03-18T19:59:38.156Z,6.81
2023-03-18T20:02:19.914Z,6.83
2023-03-18T20:04:49.594Z,6.00
2023-03-18T20:07:20.865Z,5.52
2023-03-18T20:09:49.550Z,5.71
2023-03-18T20:12:25.119Z,6.21
2023-03-18T20:14:53.898Z,6.26
2023-03-18T20:17:37.566Z,5.76
2023-03-18T20:20:07.460Z,6.21
2023-03-18T20:22:40.319Z,6.78
2023-03-18T20:25:17.002Z,6.43
2023-03-18T20:27:45.686Z,7.09
2023-03-18T20:30:24.375Z,6.87
2023-03-18T20:32:52.757Z,6.68
2023-03-18T20:35:21.541Z,6.67
2023-03-18T20:37:51.501Z,6.60
2023-03-18T20:40:23.371Z,5.82
2023-03-18T20:42:52.993Z,5.67
2023-03-18T20:45:22.402Z,6.52
2023-03-18T20:47:50.772Z,6.64
2023-03-18T20:50:28.489Z,5.90
2023-03-18T20:52:58.801Z,6.61
2023-03-18T20:55:30.731Z,6.00
2023-03-18T20:57:59.617Z,6.32
2023-03-18T21:00:30.237Z,6.37
2023-03-18T21:03:00.182Z,6.54
2023-03-18T21:05:28.894Z,6.12
2023-03-18T21:07:58.542Z,6.56
2023-03-18T21:10:28.579Z,6.77
2023-03-18T21:12:57.095Z,6.50
2023-03-18T21:15:27.365Z,6.65
2023-03-18T21:17:55.736Z,6.65
2023-03-18T21:20:29.196Z,7.01
2023-03-18T21:22:58.851Z,7.06
2023-03-18T21:25:29.295Z,7.03
2023-03-18T21:27:57.941Z,6.88
2023-03-18T21:30:26.229Z,6.82
2023-03-18T21:32:54.566Z,6.69
2023-03-18T21:35:25.140Z,5.83
2023-03-18T21:37:54.010Z,5.51
2023-03-18T21:40:26.372Z,5.02
2023-03-18T21:42:54.930Z,5.50
2023-03-18T21:45:24.349Z,5.98
2023-03-18T21:47:53.423Z,5.72
2023-03-18T21:50:24.524Z,6.08
2023-03-18T21:52:53.753Z,5.91
2023-03-18T21:55:23.834Z,6.00
2023-03-18T21:57:52.097Z,6.43
2023-03-18T22:00:21.793Z,6.39
2023-03-18T22:02:50.093Z,6.32
2023-03-18T22:05:20.605Z,5.84
2023-03-18T22:07:50.640Z,5.20
2023-03-18T22:10:21.427Z,5.50
2023-03-18T22:12:51.544Z,5.57
2023-03-18T22:15:39.847Z,5.89
2023-03-18T22:18:08.758Z,5.75
2023-03-18T22:20:37.811Z,6.03
2023-03-18T22:23:14.740Z,6.14
2023-03-18T22:25:43.576Z,6.32
2023-03-18T22:28:13.517Z,6.17
2023-03-18T22:30:43.615Z,6.39
2023-03-18T22:33:19.736Z,6.02
2023-03-18T22:35:48.938Z,6.46
2023-03-18T22:38:18.983Z,6.37
2023-03-18T22:40:48.374Z,5.86
2023-03-18T22:43:29.548Z,5.88
2023-03-18T22:45:57.959Z,6.25
2023-03-18T22:48:26.524Z,5.64
2023-03-18T22:50:55.495Z,5.58
2023-03-18T22:53:28.180Z,6.00
2023-03-18T22:55:57.776Z,6.07
2023-03-18T22:58:28.806Z,6.07
2023-03-18T23:00:57.497Z,6.12
2023-03-18T23:03:29.934Z,5.81
2023-03-18T23:06:00.084Z,6.14
2023-03-18T23:08:28.862Z,5.78
2023-03-18T23:10:58.315Z,5.69
2023-03-18T23:13:31.144Z,5.57
2023-03-18T23:15:59.474Z,5.24
2023-03-18T23:18:27.962Z,5.49
2023-03-18T23:20:56.309Z,5.62
2023-03-18T23:23:25.120Z,5.42
2023-03-18T23:25:53.651Z,4.96
2023-03-18T23:28:21.940Z,3.76
2023-03-18T23:30:53.493Z,3.13
2023-03-18T23:33:21.833Z,3.06
2023-03-18T23:35:50.164Z,2.37
2023-03-18T23:38:18.580Z,2.19
2023-03-18T23:40:46.882Z,2.19
2023-03-18T23:43:15.093Z,2.27
2023-03-18T23:45:43.440Z,2.90
2023-03-18T23:48:13.278Z,3.81
2023-03-18T23:50:41.561Z,4.35
2023-03-18T23:53:09.857Z,4.75
2023-03-18T23:55:38.220Z,4.59
2023-03-18T23:58:06.464Z,4.47
